AirNav   Pilot Hours Calculator
 
 1270 users online  

WA93 Eliza Island Airport
Bellingham, Washington, USA

GOING TO BELLINGHAM?


FAA INFORMATION EFFECTIVE 11 AUGUST 2022

Location

FAA Identifier: WA93
Lat/Long: 48-39-10.6000N 122-35-09.3200W
48-39.176667N 122-35.155333W
48.6529444,-122.5859222
(estimated)
Elevation: 8 ft. / 2 m (estimated)
Variation: 21E (1985)
From city: 7 miles SW of BELLINGHAM, WA
Time zone: UTC -7 (UTC -8 during Standard Time)
Zip code: 98262

Airport Operations

Airport use: Private use. Permission required prior to landing
Activation date: 10/1969
Control tower: no
ARTCC: SEATTLE CENTER
FSS: SEATTLE FLIGHT SERVICE STATION
Attendance: CONTINUOUS
Wind indicator: yes
Segmented circle: no

Airport Communications

WX ASOS at BLI (9 nm N): PHONE 360-671-8688
WX AWOS-3 at BVS (13 nm SE): 121.125 (360-757-7767)
WX AWOS-3 at ORS (13 nm W): 135.425 (360-376-6045)
WX ASOS at NUW (18 nm S): PHONE 360-257-8813
WX ASOS at FHR (19 nm SW): 135.675 (360-378-8491)

Nearby radio navigation aids

VOR radial/distance  VOR name  Freq  Var
HUHr161/17.5WHATCOM VORTAC113.0020E
CVVr354/25.1PENN COVE VOR/DME117.2019E
YVRr122/33.8VANCOUVER VOR/DME115.9017E
YYJr080/35.9VICTORIA VOR/DME113.7017E

 
NDB name  Hdg/Dist  Freq  Var  ID
SKAGIT/BAY VIEW313/12.924016EBVS -... ...- ...
FRIDAY HARBOR047/19.328417EFHR ..-. .... .-.

Airport Services

Airframe service: NONE
Powerplant service: NONE

Runway Information

Runway NW/SE

Dimensions: 1500 x 100 ft. / 457 x 30 m
Surface: turf
RUNWAY NW  RUNWAY SE
Traffic pattern: rightleft
Obstructions: 6 ft. dikenone

Airport Ownership and Management from official FAA records

Ownership: Privately-owned
Owner: ELIZA IS BEACH CLUB INC
P.O. BOX 1033
DUVALL, WA 98019
Phone (360) 224-0517
Manager: DAN LOOKER
P.O. BOX 1033
DUVALL, WA 98019
Phone (360) 319-6999

Additional Remarks

A42 RWY CORNERS MARKED BY WOOD MARKERS & EDGES BY PAINTED TIRES.
FOR CD CTC SEATTLE ARTCC AT 253-351-3694.

Instrument Procedures

There are no published instrument procedures at WA93.

Some nearby airports with instrument procedures:

KBLI - Bellingham International Airport (9 nm N)
KBVS - Skagit Regional Airport (13 nm SE)
KORS - Orcas Island Airport (13 nm W)
KNUW - Whidbey Island Naval Air Station (Ault Field) Airport (18 nm S)
KFHR - Friday Harbor Airport (19 nm SW)
 
Loc | Ops | Rwys | IFR | FBO | Links
Com | Nav | Svcs | Stats | Notes
Area around WA93 (Eliza Island Airport)
 
Road maps at: MapQuest Bing Google
 
Aerial photo
WARNING: Photo may not be current or correct
Aerial photo of WA93 (Eliza Island Airport)
Photo by Tom Eades
As seen circa 2008
from the left seat of a Cessna 172 flying at 3,000 ft

Do you have a better or more recent aerial photo of Eliza Island Airport that you would like to share? If so, please send us your photo.

 
Sectional chart

 
Airport distance calculator
Flying to Eliza Island Airport? Find the distance to fly.

From to WA93

Sunrise and sunset
Times for 16-Aug-2022
 Local
(UTC-7)
 Zulu
(UTC)
Morning civil twilight05:3112:31
Sunrise06:0613:06
Sunset20:2303:23
Evening civil twilight20:5803:58

Current date and time
Zulu (UTC)  17-Aug-2022 01:02:03
Local (UTC-7)  16-Aug-2022 18:02:03
 
METAR
KBLI 
9nm N 
170053Z VRB04KT 10SM CLR 26/13 A3002 RMK AO2 SLP171 T02610133
KORS 
13nm W 
170055Z AUTO 35004KT 10SM CLR 21/12 A3002 RMK AO2
KBVS 
13nm SE 
170055Z AUTO 25005KT 8SM CLR 25/13 A3002 RMK A01
KNUW 
18nm S 
170053Z 25006KT 10SM FEW085 FEW250 17/12 A3007 RMK SLP183 T01720122
CWEZ 
19nm W 
170000Z AUTO 06001KT 24/12 RMK AO1 SLP170 T02430116 57011
KFHR 
20nm SW 
170053Z AUTO 12003KT 10SM CLR 20/12 A3004 RMK AO2 SLP171 T02000117
TAF
KBLI 
9nm N 
161720Z 1618/1718 VRB05KT P6SM SKC FM162100 22008KT P6SM FEW250 FM170200 19005KT P6SM FEW250 FM171200 17006KT P6SM SKC
KNUW 
18nm S 
1700/1723 26008KT 9999 FEW060 FEW250 QNH3004INS TEMPO 1712/1715 22005KT 8000 BR SCT005 BKN012 FM171600 24008KT 9999 SCT025 SCT150 BKN250 QNH3000INS FM171800 25008KT 9999 FEW040 FEW250 QNH3006INS T11/1711Z T21/1722Z COR 1705 FS30188
NOTAMs
Click for the latest NOTAMs
NOTAMs are issued by the DoD/FAA and will open in a separate window not controlled by AirNav.

 

 
 

Would you like to see your business listed on this page?

 If your business provides an interesting product or service to pilots, flight crews, aircraft, or users of the Eliza Island Airport, you should consider listing it here.  To start the listing process, click on the button below
 
Add a business
 

Other Pages about Eliza Island Airport

Update a link
 
Copyright © AirNav, LLC. All rights reserved. Privacy Policy  Contact